Time;durP1;ratioP1;P1;durP2;ratioP2;P2;SDS_P1;SDS_P2;PMS_P1;PMS_P2;Temp;Humidity;BMP_temperature;BMP_pressure;BME280_temperature;BME280_humidity;BME280_pressure;Samples;Min_cycle;Max_cycle;Signal;HPM_P1;HPM_P2
2023/02/27 00:02:27;;;;;;;;;;;;;;;15.08;64.87;100235.88;7404103;19;1841;-79
2023/02/27 00:04:56;;;;;;;;;;;;;;;15.08;65.09;100237.66;7406287;19;989;-79
2023/02/27 00:07:27;;;;;;;;;;;;;;;15.10;65.34;100241.91;7406547;19;1060;-79
2023/02/27 00:09:55;;;;;;;;;;;;;;;15.09;65.08;100256.19;7406634;19;1047;-79
2023/02/27 00:12:24;;;;;;;;;;;;;;;15.08;64.99;100257.16;7403237;19;1402;-79
2023/02/27 00:14:54;;;;;;;;;;;;;;;15.07;65.07;100250.13;7406788;19;1077;-79
2023/02/27 00:17:24;;;;;;;;;;;;;;;15.08;65.18;100241.19;7406155;19;1133;-79
2023/02/27 00:19:52;;;;;;;;;;;;;;;15.09;65.06;100256.19;7406114;19;1011;-80
2023/02/27 00:22:21;;;;;;;;;;;;;;;15.11;65.16;100256.06;7404717;19;1860;-79
2023/02/27 00:24:49;;;;;;;;;;;;;;;15.07;65.38;100263.44;7405770;19;1011;-79
2023/02/27 00:27:17;;;;;;;;;;;;;;;15.05;65.19;100237.91;7405655;19;1196;-79
2023/02/27 00:29:46;;;;;;;;;;;;;;;15.06;64.98;100236.94;7405870;19;1100;-79
2023/02/27 00:32:17;;;;;;;;;;;;;;;15.06;65.12;100235.16;7405289;19;1079;-80
2023/02/27 00:34:45;;;;;;;;;;;;;;;15.04;65.18;100250.41;7403842;19;1426;-80
2023/02/27 00:37:13;;;;;;;;;;;;;;;15.03;65.05;100246.03;7405011;19;1001;-80
2023/02/27 00:39:41;;;;;;;;;;;;;;;15.02;65.08;100239.03;7405260;19;1065;-80
2023/02/27 00:42:10;;;;;;;;;;;;;;;15.02;65.09;100255.00;7405008;19;1856;-80
2023/02/27 00:44:39;;;;;;;;;;;;;;;15.02;65.28;100246.13;7406051;19;1040;-79
2023/02/27 00:47:07;;;;;;;;;;;;;;;15.02;65.41;100252.34;7403932;19;1017;-80
2023/02/27 00:49:38;;;;;;;;;;;;;;;15.00;65.43;100256.94;7406678;19;955;-79
2023/02/27 00:52:07;;;;;;;;;;;;;;;15.01;64.93;100241.81;7406346;19;1121;-80
2023/02/27 00:54:35;;;;;;;;;;;;;;;15.00;65.28;100230.31;7405206;19;1026;-80
2023/02/27 00:57:03;;;;;;;;;;;;;;;15.00;64.95;100240.09;7404584;19;1107;-80
2023/02/27 00:59:31;;;;;;;;;;;;;;;14.99;65.32;100243.75;7405084;19;1037;-80
2023/02/27 01:01:59;;;;;;;;;;;;;;;14.96;65.05;100243.97;7404502;19;1061;-80
2023/02/27 01:04:28;;;;;;;;;;;;;;;15.00;65.22;100235.63;7404714;19;996;-80
2023/02/27 01:06:59;;;;;;;;;;;;;;;14.98;65.45;100221.59;7403667;19;1471;-80
2023/02/27 01:09:27;;;;;;;;;;;;;;;14.99;65.32;100212.63;7404780;19;1045;-80
2023/02/27 01:11:56;;;;;;;;;;;;;;;15.00;65.09;100224.97;7402317;19;1008;-80
2023/02/27 01:14:24;;;;;;;;;;;;;;;14.99;65.20;100227.75;7404072;19;1065;-80
2023/02/27 01:16:53;;;;;;;;;;;;;;;14.99;65.21;100233.94;7404291;19;1015;-80
2023/02/27 01:19:21;;;;;;;;;;;;;;;15.05;65.22;100230.78;7404771;19;1028;-79
2023/02/27 01:21:49;;;;;;;;;;;;;;;15.04;65.45;100249.53;7403799;19;1085;-79
2023/02/27 01:24:21;;;;;;;;;;;;;;;15.01;65.07;100229.31;7402035;19;1851;-80
2023/02/27 01:26:51;;;;;;;;;;;;;;;15.02;65.52;100247.00;7404640;19;1045;-79
2023/02/27 01:29:19;;;;;;;;;;;;;;;15.02;65.33;100244.34;7404216;19;1107;-79
2023/02/27 01:31:48;;;;;;;;;;;;;;;15.00;65.07;100227.66;7403551;19;977;-80
2023/02/27 01:34:16;;;;;;;;;;;;;;;15.00;65.54;100229.44;7402479;19;1342;-80
2023/02/27 01:36:44;;;;;;;;;;;;;;;14.98;65.27;100261.53;7403210;19;1142;-80
2023/02/27 01:39:12;;;;;;;;;;;;;;;15.00;65.07;100251.63;7403304;19;970;-80
2023/02/27 01:41:44;;;;;;;;;;;;;;;14.98;65.26;100258.88;7403330;19;975;-80
2023/02/27 01:44:13;;;;;;;;;;;;;;;14.97;65.13;100251.00;7400945;19;1840;-80
2023/02/27 01:46:41;;;;;;;;;;;;;;;14.99;65.40;100257.88;7403089;19;1028;-80
2023/02/27 01:49:12;;;;;;;;;;;;;;;14.97;65.20;100256.31;7403448;19;1015;-80
2023/02/27 01:51:43;;;;;;;;;;;;;;;14.95;65.51;100264.44;7400394;19;1450;-80
2023/02/27 01:54:13;;;;;;;;;;;;;;;14.95;65.39;100261.75;7402160;19;1056;-80
2023/02/27 01:56:44;;;;;;;;;;;;;;;14.96;65.25;100255.50;7402699;19;978;-79
2023/02/27 01:59:13;;;;;;;;;;;;;;;14.94;65.15;100262.75;7403610;19;993;-79
2023/02/27 02:01:41;;;;;;;;;;;;;;;14.94;65.42;100251.22;7400609;19;1371;-79
2023/02/27 02:04:14;;;;;;;;;;;;;;;14.96;65.45;100263.47;7401190;19;1853;-80
2023/02/27 02:06:43;;;;;;;;;;;;;;;14.93;65.41;100277.00;7401899;19;1025;-80
2023/02/27 02:09:12;;;;;;;;;;;;;;;14.94;65.33;100277.84;7400351;19;1368;-79
2023/02/27 02:11:44;;;;;;;;;;;;;;;14.94;65.06;100285.84;7402076;19;1048;-79
2023/02/27 02:14:12;;;;;;;;;;;;;;;14.94;65.22;100278.72;7402164;19;1186;-80
2023/02/27 02:16:53;;;;;;;;;;;;;;;14.93;65.67;100271.69;7400114;19;1473;-80
2023/02/27 02:19:48;;;;;;;;;;;;;;;14.93;65.56;100282.34;7401813;19;1091;-80
2023/02/27 02:22:31;;;;;;;;;;;;;;;14.95;65.31;100267.09;7399960;19;1109;-80
2023/02/27 02:25:18;;;;;;;;;;;;;;;14.96;65.30;100259.94;7402688;19;971;-80
2023/02/27 02:27:56;;;;;;;;;;;;;;;14.96;65.28;100275.91;7401010;19;1153;-80
2023/02/27 02:30:43;;;;;;;;;;;;;;;14.94;65.17;100286.72;7401181;19;1029;-80
2023/02/27 02:33:37;;;;;;;;;;;;;;;14.96;65.39;100289.22;7401185;19;1012;-80
2023/02/27 02:36:24;;;;;;;;;;;;;;;14.94;65.14;100286.72;7399715;19;1535;-80
2023/02/27 02:39:09;;;;;;;;;;;;;;;14.95;65.54;100296.38;7402262;19;1010;-80
2023/02/27 02:41:45;;;;;;;;;;;;;;;14.94;65.37;100310.69;7401296;19;989;-80
2023/02/27 02:44:19;;;;;;;;;;;;;;;14.89;65.26;100295.03;7399642;19;1850;-80
2023/02/27 02:46:49;;;;;;;;;;;;;;;14.93;65.50;100310.78;7400834;19;1021;-80
2023/02/27 02:49:25;;;;;;;;;;;;;;;14.90;65.38;100303.88;7399200;19;1402;-80
2023/02/27 02:51:57;;;;;;;;;;;;;;;14.87;65.16;100299.63;7401147;19;1064;-80
2023/02/27 02:54:34;;;;;;;;;;;;;;;14.92;65.25;100323.22;7400892;19;1059;-80
2023/02/27 02:57:07;;;;;;;;;;;;;;;14.93;65.17;100321.44;7398694;19;1387;-80
2023/02/27 02:59:38;;;;;;;;;;;;;;;14.91;65.38;100319.72;7400593;19;1058;-79
